sensor_id;sensor_type;location;lat;lon;timestamp;temperature;humidity
22526;DHT22;11429;50.842;4.386;2024-03-02T00:00:07;6.80;99.90
22526;DHT22;11429;50.842;4.386;2024-03-02T00:02:44;6.80;99.90
22526;DHT22;11429;50.842;4.386;2024-03-02T00:05:20;6.80;99.90
22526;DHT22;11429;50.842;4.386;2024-03-02T00:07:55;6.80;99.90
22526;DHT22;11429;50.842;4.386;2024-03-02T00:10:26;6.80;99.90
22526;DHT22;11429;50.842;4.386;2024-03-02T00:12:57;6.70;99.90
22526;DHT22;11429;50.842;4.386;2024-03-02T00:15:46;6.70;99.90
22526;DHT22;11429;50.842;4.386;2024-03-02T00:18:19;6.70;99.90
22526;DHT22;11429;50.842;4.386;2024-03-02T00:20:45;6.70;99.90
22526;DHT22;11429;50.842;4.386;2024-03-02T00:23:15;6.70;99.90
22526;DHT22;11429;50.842;4.386;2024-03-02T00:28:35;6.80;99.90
22526;DHT22;11429;50.842;4.386;2024-03-02T00:31:06;6.80;99.90
22526;DHT22;11429;50.842;4.386;2024-03-02T00:33:39;6.80;99.90
22526;DHT22;11429;50.842;4.386;2024-03-02T00:36:06;6.70;99.90
22526;DHT22;11429;50.842;4.386;2024-03-02T00:38:33;6.80;99.90
22526;DHT22;11429;50.842;4.386;2024-03-02T00:41:03;6.70;99.90
22526;DHT22;11429;50.842;4.386;2024-03-02T00:46:18;6.80;99.90
22526;DHT22;11429;50.842;4.386;2024-03-02T00:48:57;6.70;99.90
22526;DHT22;11429;50.842;4.386;2024-03-02T00:51:25;6.70;99.90
22526;DHT22;11429;50.842;4.386;2024-03-02T00:53:52;6.80;99.90
22526;DHT22;11429;50.842;4.386;2024-03-02T00:56:20;6.70;99.90
22526;DHT22;11429;50.842;4.386;2024-03-02T00:58:46;6.80;99.90
22526;DHT22;11429;50.842;4.386;2024-03-02T01:01:12;6.80;99.90
22526;DHT22;11429;50.842;4.386;2024-03-02T01:03:38;6.70;99.90
22526;DHT22;11429;50.842;4.386;2024-03-02T01:06:05;6.80;99.90
22526;DHT22;11429;50.842;4.386;2024-03-02T01:08:33;6.80;99.90
22526;DHT22;11429;50.842;4.386;2024-03-02T01:10:59;6.80;99.90
22526;DHT22;11429;50.842;4.386;2024-03-02T01:13:26;6.80;99.90
22526;DHT22;11429;50.842;4.386;2024-03-02T01:15:51;6.80;99.90
22526;DHT22;11429;50.842;4.386;2024-03-02T01:18:18;6.80;99.90
22526;DHT22;11429;50.842;4.386;2024-03-02T01:20:44;6.80;99.90
22526;DHT22;11429;50.842;4.386;2024-03-02T01:23:10;6.80;99.90
22526;DHT22;11429;50.842;4.386;2024-03-02T01:25:36;6.80;99.90
22526;DHT22;11429;50.842;4.386;2024-03-02T01:28:01;6.80;99.90
22526;DHT22;11429;50.842;4.386;2024-03-02T01:30:27;6.80;99.90
22526;DHT22;11429;50.842;4.386;2024-03-02T01:32:53;6.80;99.90
22526;DHT22;11429;50.842;4.386;2024-03-02T01:35:19;6.90;99.90
22526;DHT22;11429;50.842;4.386;2024-03-02T01:37:44;6.80;99.90
22526;DHT22;11429;50.842;4.386;2024-03-02T01:40:11;6.90;99.90
22526;DHT22;11429;50.842;4.386;2024-03-02T01:42:37;6.90;99.90
22526;DHT22;11429;50.842;4.386;2024-03-02T01:45:07;6.80;99.90
22526;DHT22;11429;50.842;4.386;2024-03-02T01:47:33;6.80;99.90
22526;DHT22;11429;50.842;4.386;2024-03-02T01:49:59;6.80;99.90
22526;DHT22;11429;50.842;4.386;2024-03-02T01:52:25;6.80;99.90
22526;DHT22;11429;50.842;4.386;2024-03-02T01:54:51;6.90;99.90
22526;DHT22;11429;50.842;4.386;2024-03-02T01:57:17;6.80;99.90
22526;DHT22;11429;50.842;4.386;2024-03-02T01:59:43;6.80;99.90
22526;DHT22;11429;50.842;4.386;2024-03-02T02:02:09;6.80;99.90
22526;DHT22;11429;50.842;4.386;2024-03-02T02:04:36;6.80;99.90
22526;DHT22;11429;50.842;4.386;2024-03-02T02:07:02;6.80;99.90
22526;DHT22;11429;50.842;4.386;2024-03-02T02:09:27;6.90;99.90
22526;DHT22;11429;50.842;4.386;2024-03-02T02:11:53;7.00;99.90
22526;DHT22;11429;50.842;4.386;2024-03-02T02:14:19;7.00;99.90
22526;DHT22;11429;50.842;4.386;2024-03-02T02:16:44;7.00;99.90
22526;DHT22;11429;50.842;4.386;2024-03-02T02:19:10;6.90;99.90
22526;DHT22;11429;50.842;4.386;2024-03-02T02:21:36;7.00;99.90
22526;DHT22;11429;50.842;4.386;2024-03-02T02:24:02;7.00;99.90
22526;DHT22;11429;50.842;4.386;2024-03-02T02:26:29;7.00;99.90
22526;DHT22;11429;50.842;4.386;2024-03-02T02:28:55;7.00;99.90
22526;DHT22;11429;50.842;4.386;2024-03-02T02:31:21;7.00;99.90
22526;DHT22;11429;50.842;4.386;2024-03-02T02:33:46;6.90;99.90
22526;DHT22;11429;50.842;4.386;2024-03-02T02:36:12;6.90;99.90
22526;DHT22;11429;50.842;4.386;2024-03-02T02:38:42;7.00;99.90
22526;DHT22;11429;50.842;4.386;2024-03-02T02:41:08;7.00;99.90
22526;DHT22;11429;50.842;4.386;2024-03-02T02:43:34;7.00;99.90
22526;DHT22;11429;50.842;4.386;2024-03-02T02:46:00;6.90;99.90
22526;DHT22;11429;50.842;4.386;2024-03-02T02:48:26;6.90;99.90
22526;DHT22;11429;50.842;4.386;2024-03-02T02:50:51;6.80;99.90
22526;DHT22;11429;50.842;4.386;2024-03-02T02:53:17;6.80;99.90
22526;DHT22;11429;50.842;4.386;2024-03-02T02:55:43;6.80;99.90
22526;DHT22;11429;50.842;4.386;2024-03-02T02:58:12;6.80;99.90
22526;DHT22;11429;50.842;4.386;2024-03-02T03:00:38;6.70;99.90
22526;DHT22;11429;50.842;4.386;2024-03-02T03:03:04;6.70;99.90
22526;DHT22;11429;50.842;4.386;2024-03-02T03:05:30;6.70;99.90
22526;DHT22;11429;50.842;4.386;2024-03-02T03:07:56;6.60;99.90
22526;DHT22;11429;50.842;4.386;2024-03-02T03:10:21;6.60;99.90
22526;DHT22;11429;50.842;4.386;2024-03-02T03:12:49;6.50;99.90
22526;DHT22;11429;50.842;4.386;2024-03-02T03:15:14;6.50;99.90
22526;DHT22;11429;50.842;4.386;2024-03-02T03:17:42;6.50;99.90
22526;DHT22;11429;50.842;4.386;2024-03-02T03:20:08;6.50;99.90
22526;DHT22;11429;50.842;4.386;2024-03-02T03:22:37;6.50;99.90
22526;DHT22;11429;50.842;4.386;2024-03-02T03:25:03;6.50;99.90
22526;DHT22;11429;50.842;4.386;2024-03-02T03:27:29;6.50;99.90
22526;DHT22;11429;50.842;4.386;2024-03-02T03:29:55;6.50;99.90
22526;DHT22;11429;50.842;4.386;2024-03-02T03:32:21;6.50;99.90
22526;DHT22;11429;50.842;4.386;2024-03-02T03:34:47;6.50;99.90
22526;DHT22;11429;50.842;4.386;2024-03-02T03:37:14;6.50;99.90
22526;DHT22;11429;50.842;4.386;2024-03-02T03:39:40;6.60;99.90
22526;DHT22;11429;50.842;4.386;2024-03-02T03:42:05;6.60;99.90
22526;DHT22;11429;50.842;4.386;2024-03-02T03:44:32;6.60;99.90
22526;DHT22;11429;50.842;4.386;2024-03-02T03:46:57;6.60;99.90
22526;DHT22;11429;50.842;4.386;2024-03-02T03:49:23;6.60;99.90
22526;DHT22;11429;50.842;4.386;2024-03-02T03:51:49;6.60;99.90
22526;DHT22;11429;50.842;4.386;2024-03-02T03:54:15;6.60;99.90
22526;DHT22;11429;50.842;4.386;2024-03-02T03:56:40;6.60;99.90
22526;DHT22;11429;50.842;4.386;2024-03-02T03:59:06;6.60;99.90
22526;DHT22;11429;50.842;4.386;2024-03-02T04:01:32;6.70;99.90
22526;DHT22;11429;50.842;4.386;2024-03-02T04:03:59;6.70;99.90
22526;DHT22;11429;50.842;4.386;2024-03-02T04:06:25;6.70;99.90
22526;DHT22;11429;50.842;4.386;2024-03-02T04:08:51;6.70;99.90
22526;DHT22;11429;50.842;4.386;2024-03-02T04:11:16;6.70;99.90
22526;DHT22;11429;50.842;4.386;2024-03-02T04:13:42;6.70;99.90
22526;DHT22;11429;50.842;4.386;2024-03-02T04:16:08;6.60;99.90
22526;DHT22;11429;50.842;4.386;2024-03-02T04:18:33;6.60;99.90
22526;DHT22;11429;50.842;4.386;2024-03-02T04:21:00;6.50;99.90
22526;DHT22;11429;50.842;4.386;2024-03-02T04:23:29;6.50;99.90
22526;DHT22;11429;50.842;4.386;2024-03-02T04:25:55;6.50;99.90
22526;DHT22;11429;50.842;4.386;2024-03-02T04:28:20;6.40;99.90
22526;DHT22;11429;50.842;4.386;2024-03-02T04:30:46;6.40;99.90
22526;DHT22;11429;50.842;4.386;2024-03-02T04:33:12;6.40;99.90
22526;DHT22;11429;50.842;4.386;2024-03-02T04:35:37;6.40;99.90
22526;DHT22;11429;50.842;4.386;2024-03-02T04:38:03;6.40;99.90
22526;DHT22;11429;50.842;4.386;2024-03-02T04:40:29;6.40;99.90
22526;DHT22;11429;50.842;4.386;2024-03-02T04:42:55;6.30;99.90
22526;DHT22;11429;50.842;4.386;2024-03-02T04:45:20;6.40;99.90
22526;DHT22;11429;50.842;4.386;2024-03-02T04:47:46;6.40;99.90
22526;DHT22;11429;50.842;4.386;2024-03-02T04:50:12;6.40;99.90
22526;DHT22;11429;50.842;4.386;2024-03-02T04:52:37;6.30;99.90
22526;DHT22;11429;50.842;4.386;2024-03-02T04:55:03;6.30;99.90
22526;DHT22;11429;50.842;4.386;2024-03-02T04:57:43;6.30;99.90
22526;DHT22;11429;50.842;4.386;2024-03-02T05:00:11;6.20;99.90
22526;DHT22;11429;50.842;4.386;2024-03-02T05:02:38;6.20;99.90
22526;DHT22;11429;50.842;4.386;2024-03-02T05:05:04;6.20;99.90
22526;DHT22;11429;50.842;4.386;2024-03-02T05:07:29;6.20;99.90
22526;DHT22;11429;50.842;4.386;2024-03-02T05:09:55;6.20;99.90
22526;DHT22;11429;50.842;4.386;2024-03-02T05:12:21;6.20;99.90
22526;DHT22;11429;50.842;4.386;2024-03-02T05:15:06;6.20;99.90
22526;DHT22;11429;50.842;4.386;2024-03-02T05:17:33;6.20;99.90
22526;DHT22;11429;50.842;4.386;2024-03-02T05:19:59;6.20;99.90
22526;DHT22;11429;50.842;4.386;2024-03-02T05:22:24;6.10;99.90
22526;DHT22;11429;50.842;4.386;2024-03-02T05:24:50;6.10;99.90
22526;DHT22;11429;50.842;4.386;2024-03-02T05:27:16;6.10;99.90
22526;DHT22;11429;50.842;4.386;2024-03-02T05:29:42;6.10;99.90
22526;DHT22;11429;50.842;4.386;2024-03-02T05:32:07;6.00;99.90
22526;DHT22;11429;50.842;4.386;2024-03-02T05:34:33;6.00;99.90
22526;DHT22;11429;50.842;4.386;2024-03-02T05:37:01;6.00;99.90
22526;DHT22;11429;50.842;4.386;2024-03-02T05:39:27;6.00;99.90
22526;DHT22;11429;50.842;4.386;2024-03-02T05:41:53;6.10;99.90
22526;DHT22;11429;50.842;4.386;2024-03-02T05:44:18;6.00;99.90
22526;DHT22;11429;50.842;4.386;2024-03-02T05:46:45;6.10;99.90
22526;DHT22;11429;50.842;4.386;2024-03-02T05:49:11;6.10;99.90
22526;DHT22;11429;50.842;4.386;2024-03-02T05:51:37;6.00;99.90
22526;DHT22;11429;50.842;4.386;2024-03-02T05:54:03;6.00;99.90
22526;DHT22;11429;50.842;4.386;2024-03-02T05:56:28;6.00;99.90
22526;DHT22;11429;50.842;4.386;2024-03-02T05:58:54;6.00;99.90
22526;DHT22;11429;50.842;4.386;2024-03-02T06:01:45;6.00;99.90
22526;DHT22;11429;50.842;4.386;2024-03-02T06:04:17;6.00;99.90
22526;DHT22;11429;50.842;4.386;2024-03-02T06:06:44;6.00;99.90
22526;DHT22;11429;50.842;4.386;2024-03-02T06:09:10;6.00;99.90
22526;DHT22;11429;50.842;4.386;2024-03-02T06:11:42;6.00;99.90
22526;DHT22;11429;50.842;4.386;2024-03-02T06:14:08;6.00;99.90
22526;DHT22;11429;50.842;4.386;2024-03-02T06:16:34;5.90;99.90
22526;DHT22;11429;50.842;4.386;2024-03-02T06:19:01;6.00;99.90
22526;DHT22;11429;50.842;4.386;2024-03-02T06:21:27;6.00;99.90
22526;DHT22;11429;50.842;4.386;2024-03-02T06:23:53;5.90;99.90
22526;DHT22;11429;50.842;4.386;2024-03-02T06:26:20;5.90;99.90
22526;DHT22;11429;50.842;4.386;2024-03-02T06:28:46;6.00;99.90
22526;DHT22;11429;50.842;4.386;2024-03-02T06:31:12;6.00;99.90
22526;DHT22;11429;50.842;4.386;2024-03-02T06:33:38;6.00;99.90
22526;DHT22;11429;50.842;4.386;2024-03-02T06:36:04;6.00;99.90
22526;DHT22;11429;50.842;4.386;2024-03-02T06:38:30;6.00;99.90
22526;DHT22;11429;50.842;4.386;2024-03-02T06:40:58;6.00;99.90
22526;DHT22;11429;50.842;4.386;2024-03-02T06:43:25;6.00;99.90
22526;DHT22;11429;50.842;4.386;2024-03-02T06:45:51;6.00;99.90
22526;DHT22;11429;50.842;4.386;2024-03-02T06:48:17;6.00;99.90
22526;DHT22;11429;50.842;4.386;2024-03-02T06:50:49;6.00;99.90
22526;DHT22;11429;50.842;4.386;2024-03-02T06:53:15;6.00;99.90
22526;DHT22;11429;50.842;4.386;2024-03-02T06:55:45;6.00;99.90
22526;DHT22;11429;50.842;4.386;2024-03-02T06:58:14;5.90;99.90
22526;DHT22;11429;50.842;4.386;2024-03-02T07:00:43;6.00;99.90
22526;DHT22;11429;50.842;4.386;2024-03-02T07:03:09;6.00;99.90
22526;DHT22;11429;50.842;4.386;2024-03-02T07:05:35;6.00;99.90
22526;DHT22;11429;50.842;4.386;2024-03-02T07:08:01;6.00;99.90
22526;DHT22;11429;50.842;4.386;2024-03-02T07:10:28;6.10;99.90
22526;DHT22;11429;50.842;4.386;2024-03-02T07:12:54;6.10;99.90
22526;DHT22;11429;50.842;4.386;2024-03-02T07:15:19;6.10;99.90
22526;DHT22;11429;50.842;4.386;2024-03-02T07:18:08;6.10;99.90
22526;DHT22;11429;50.842;4.386;2024-03-02T07:20:34;6.10;99.90
22526;DHT22;11429;50.842;4.386;2024-03-02T07:23:00;6.20;99.90
22526;DHT22;11429;50.842;4.386;2024-03-02T07:25:26;6.20;99.90
22526;DHT22;11429;50.842;4.386;2024-03-02T07:27:52;6.30;99.90
22526;DHT22;11429;50.842;4.386;2024-03-02T07:30:18;6.50;99.90
22526;DHT22;11429;50.842;4.386;2024-03-02T07:32:44;6.50;99.90
22526;DHT22;11429;50.842;4.386;2024-03-02T07:35:14;6.40;99.90
22526;DHT22;11429;50.842;4.386;2024-03-02T07:37:41;6.50;99.90
22526;DHT22;11429;50.842;4.386;2024-03-02T07:40:08;6.50;99.90
22526;DHT22;11429;50.842;4.386;2024-03-02T07:42:40;6.60;99.90
22526;DHT22;11429;50.842;4.386;2024-03-02T07:45:06;6.60;99.90
22526;DHT22;11429;50.842;4.386;2024-03-02T07:47:34;6.80;99.90
22526;DHT22;11429;50.842;4.386;2024-03-02T07:50:00;7.00;99.90
22526;DHT22;11429;50.842;4.386;2024-03-02T07:52:26;7.10;99.90
22526;DHT22;11429;50.842;4.386;2024-03-02T07:54:52;7.20;99.90
22526;DHT22;11429;50.842;4.386;2024-03-02T07:57:17;7.20;99.90
22526;DHT22;11429;50.842;4.386;2024-03-02T07:59:43;7.20;99.90
22526;DHT22;11429;50.842;4.386;2024-03-02T08:02:09;7.40;99.90
22526;DHT22;11429;50.842;4.386;2024-03-02T08:04:35;7.60;99.90
22526;DHT22;11429;50.842;4.386;2024-03-02T08:07:02;7.60;99.90
22526;DHT22;11429;50.842;4.386;2024-03-02T08:09:28;7.70;99.90
22526;DHT22;11429;50.842;4.386;2024-03-02T08:11:54;7.70;99.90
22526;DHT22;11429;50.842;4.386;2024-03-02T08:14:19;7.80;99.90
22526;DHT22;11429;50.842;4.386;2024-03-02T08:16:46;7.70;99.90
22526;DHT22;11429;50.842;4.386;2024-03-02T08:19:12;7.60;99.90
22526;DHT22;11429;50.842;4.386;2024-03-02T08:21:40;7.60;99.90
22526;DHT22;11429;50.842;4.386;2024-03-02T08:24:06;7.70;99.90
22526;DHT22;11429;50.842;4.386;2024-03-02T08:26:32;7.90;99.90
22526;DHT22;11429;50.842;4.386;2024-03-02T08:29:01;7.90;99.90
22526;DHT22;11429;50.842;4.386;2024-03-02T08:31:29;8.10;99.90
22526;DHT22;11429;50.842;4.386;2024-03-02T08:33:58;8.20;99.90
22526;DHT22;11429;50.842;4.386;2024-03-02T08:36:24;8.20;99.90
22526;DHT22;11429;50.842;4.386;2024-03-02T08:38:50;8.30;99.90
22526;DHT22;11429;50.842;4.386;2024-03-02T08:41:16;8.40;99.90
22526;DHT22;11429;50.842;4.386;2024-03-02T08:43:42;8.50;99.90
22526;DHT22;11429;50.842;4.386;2024-03-02T08:46:08;8.60;99.90
22526;DHT22;11429;50.842;4.386;2024-03-02T08:48:34;8.80;99.90
22526;DHT22;11429;50.842;4.386;2024-03-02T08:51:00;8.80;99.90
22526;DHT22;11429;50.842;4.386;2024-03-02T08:53:26;8.90;99.90
22526;DHT22;11429;50.842;4.386;2024-03-02T08:55:51;8.90;99.90
22526;DHT22;11429;50.842;4.386;2024-03-02T08:58:17;8.90;99.90
22526;DHT22;11429;50.842;4.386;2024-03-02T09:00:43;9.10;99.90
22526;DHT22;11429;50.842;4.386;2024-03-02T09:03:09;9.40;99.90
22526;DHT22;11429;50.842;4.386;2024-03-02T09:05:35;9.50;99.90
22526;DHT22;11429;50.842;4.386;2024-03-02T09:08:01;9.40;99.90
22526;DHT22;11429;50.842;4.386;2024-03-02T09:10:29;9.50;99.90
22526;DHT22;11429;50.842;4.386;2024-03-02T09:12:54;9.80;99.90
22526;DHT22;11429;50.842;4.386;2024-03-02T09:15:20;9.90;99.90
22526;DHT22;11429;50.842;4.386;2024-03-02T09:17:46;9.90;99.90
22526;DHT22;11429;50.842;4.386;2024-03-02T09:20:12;10.00;99.90
22526;DHT22;11429;50.842;4.386;2024-03-02T09:22:39;10.30;99.90
22526;DHT22;11429;50.842;4.386;2024-03-02T09:25:05;10.20;99.90
22526;DHT22;11429;50.842;4.386;2024-03-02T09:27:32;10.10;99.90
22526;DHT22;11429;50.842;4.386;2024-03-02T09:29:58;10.10;99.90
22526;DHT22;11429;50.842;4.386;2024-03-02T09:32:24;10.00;99.90
22526;DHT22;11429;50.842;4.386;2024-03-02T09:34:50;10.20;99.90
22526;DHT22;11429;50.842;4.386;2024-03-02T09:37:15;10.20;99.90
22526;DHT22;11429;50.842;4.386;2024-03-02T09:39:43;10.00;99.90
22526;DHT22;11429;50.842;4.386;2024-03-02T09:42:10;9.90;99.90
22526;DHT22;11429;50.842;4.386;2024-03-02T09:44:37;9.70;99.90
22526;DHT22;11429;50.842;4.386;2024-03-02T09:47:02;9.70;99.90
22526;DHT22;11429;50.842;4.386;2024-03-02T09:49:28;9.70;99.90
22526;DHT22;11429;50.842;4.386;2024-03-02T09:51:54;9.90;99.90
22526;DHT22;11429;50.842;4.386;2024-03-02T09:54:21;10.00;99.90
22526;DHT22;11429;50.842;4.386;2024-03-02T09:56:47;10.30;99.90
22526;DHT22;11429;50.842;4.386;2024-03-02T09:59:12;10.50;99.90
22526;DHT22;11429;50.842;4.386;2024-03-02T10:01:56;10.50;99.90
22526;DHT22;11429;50.842;4.386;2024-03-02T10:04:23;11.20;99.90
22526;DHT22;11429;50.842;4.386;2024-03-02T10:06:49;11.50;99.90
22526;DHT22;11429;50.842;4.386;2024-03-02T10:09:27;11.80;99.90
22526;DHT22;11429;50.842;4.386;2024-03-02T10:12:07;12.50;99.90
22526;DHT22;11429;50.842;4.386;2024-03-02T10:14:33;13.60;99.90
22526;DHT22;11429;50.842;4.386;2024-03-02T10:17:10;14.00;99.90
22526;DHT22;11429;50.842;4.386;2024-03-02T10:19:36;14.10;99.90
22526;DHT22;11429;50.842;4.386;2024-03-02T10:22:07;14.20;99.90
22526;DHT22;11429;50.842;4.386;2024-03-02T10:27:09;14.00;99.90
22526;DHT22;11429;50.842;4.386;2024-03-02T10:29:46;13.60;99.90
22526;DHT22;11429;50.842;4.386;2024-03-02T10:32:12;13.70;99.90
22526;DHT22;11429;50.842;4.386;2024-03-02T10:34:44;13.30;99.90
22526;DHT22;11429;50.842;4.386;2024-03-02T10:37:14;13.30;99.90
22526;DHT22;11429;50.842;4.386;2024-03-02T10:39:40;13.00;99.90
22526;DHT22;11429;50.842;4.386;2024-03-02T10:42:07;13.70;99.90
22526;DHT22;11429;50.842;4.386;2024-03-02T10:44:33;13.90;99.90
22526;DHT22;11429;50.842;4.386;2024-03-02T10:47:04;13.80;99.90
22526;DHT22;11429;50.842;4.386;2024-03-02T10:49:31;13.10;99.90
22526;DHT22;11429;50.842;4.386;2024-03-02T10:52:00;13.10;99.90
22526;DHT22;11429;50.842;4.386;2024-03-02T10:54:27;13.70;99.90
22526;DHT22;11429;50.842;4.386;2024-03-02T10:56:58;13.80;99.90
22526;DHT22;11429;50.842;4.386;2024-03-02T10:59:35;13.10;99.90
22526;DHT22;11429;50.842;4.386;2024-03-02T11:02:06;12.90;99.90
22526;DHT22;11429;50.842;4.386;2024-03-02T11:04:37;12.80;99.90
22526;DHT22;11429;50.842;4.386;2024-03-02T11:07:08;12.60;99.90
22526;DHT22;11429;50.842;4.386;2024-03-02T11:09:39;12.40;99.90
22526;DHT22;11429;50.842;4.386;2024-03-02T11:12:46;12.30;99.90
22526;DHT22;11429;50.842;4.386;2024-03-02T11:15:18;12.20;99.90
22526;DHT22;11429;50.842;4.386;2024-03-02T11:17:46;12.40;99.90
22526;DHT22;11429;50.842;4.386;2024-03-02T11:20:13;12.60;99.90
22526;DHT22;11429;50.842;4.386;2024-03-02T11:22:40;12.50;99.90
22526;DHT22;11429;50.842;4.386;2024-03-02T11:25:26;12.60;99.90
22526;DHT22;11429;50.842;4.386;2024-03-02T11:33:00;13.00;99.90
22526;DHT22;11429;50.842;4.386;2024-03-02T11:35:29;13.00;99.90
22526;DHT22;11429;50.842;4.386;2024-03-02T11:37:55;13.50;99.90
22526;DHT22;11429;50.842;4.386;2024-03-02T11:40:28;13.70;99.90
22526;DHT22;11429;50.842;4.386;2024-03-02T11:42:55;13.00;99.90
22526;DHT22;11429;50.842;4.386;2024-03-02T11:45:24;12.80;99.90
22526;DHT22;11429;50.842;4.386;2024-03-02T11:47:51;13.00;99.90
22526;DHT22;11429;50.842;4.386;2024-03-02T11:50:34;13.00;99.90
22526;DHT22;11429;50.842;4.386;2024-03-02T11:53:08;13.40;99.90
22526;DHT22;11429;50.842;4.386;2024-03-02T11:55:36;13.90;99.90
22526;DHT22;11429;50.842;4.386;2024-03-02T11:58:04;13.80;99.90
22526;DHT22;11429;50.842;4.386;2024-03-02T12:00:30;14.10;99.90
22526;DHT22;11429;50.842;4.386;2024-03-02T12:03:06;14.00;99.90
22526;DHT22;11429;50.842;4.386;2024-03-02T12:05:32;14.10;99.90
22526;DHT22;11429;50.842;4.386;2024-03-02T12:08:04;14.40;99.90
22526;DHT22;11429;50.842;4.386;2024-03-02T12:10:31;14.40;99.90
22526;DHT22;11429;50.842;4.386;2024-03-02T12:13:02;14.10;99.90
22526;DHT22;11429;50.842;4.386;2024-03-02T12:15:29;13.80;99.90
22526;DHT22;11429;50.842;4.386;2024-03-02T12:17:57;13.90;99.90
22526;DHT22;11429;50.842;4.386;2024-03-02T12:20:28;13.70;99.90
22526;DHT22;11429;50.842;4.386;2024-03-02T12:23:01;13.50;99.90
22526;DHT22;11429;50.842;4.386;2024-03-02T12:25:31;13.60;99.90
22526;DHT22;11429;50.842;4.386;2024-03-02T12:28:03;13.80;99.90
22526;DHT22;11429;50.842;4.386;2024-03-02T12:30:35;13.90;99.90
22526;DHT22;11429;50.842;4.386;2024-03-02T12:33:01;13.90;99.90
22526;DHT22;11429;50.842;4.386;2024-03-02T12:35:27;13.80;99.90
22526;DHT22;11429;50.842;4.386;2024-03-02T12:37:54;13.60;99.90
22526;DHT22;11429;50.842;4.386;2024-03-02T12:40:21;13.50;99.90
22526;DHT22;11429;50.842;4.386;2024-03-02T12:42:51;13.10;99.90
22526;DHT22;11429;50.842;4.386;2024-03-02T12:45:17;13.10;99.90
22526;DHT22;11429;50.842;4.386;2024-03-02T12:47:50;13.30;99.90
22526;DHT22;11429;50.842;4.386;2024-03-02T12:50:21;13.20;99.90
22526;DHT22;11429;50.842;4.386;2024-03-02T12:52:53;13.20;99.90
22526;DHT22;11429;50.842;4.386;2024-03-02T12:55:21;13.30;99.90
22526;DHT22;11429;50.842;4.386;2024-03-02T12:57:47;13.60;99.90
22526;DHT22;11429;50.842;4.386;2024-03-02T13:00:14;13.70;99.90
22526;DHT22;11429;50.842;4.386;2024-03-02T13:02:46;13.70;99.90
22526;DHT22;11429;50.842;4.386;2024-03-02T13:05:11;13.50;99.90
22526;DHT22;11429;50.842;4.386;2024-03-02T13:07:38;13.60;99.90
22526;DHT22;11429;50.842;4.386;2024-03-02T13:10:06;13.50;99.90
22526;DHT22;11429;50.842;4.386;2024-03-02T13:12:33;13.30;99.90
22526;DHT22;11429;50.842;4.386;2024-03-02T13:14:59;13.20;99.90
22526;DHT22;11429;50.842;4.386;2024-03-02T13:17:24;13.30;99.90
22526;DHT22;11429;50.842;4.386;2024-03-02T13:19:59;13.10;99.90
22526;DHT22;11429;50.842;4.386;2024-03-02T13:22:25;13.00;99.90
22526;DHT22;11429;50.842;4.386;2024-03-02T13:24:52;13.00;99.90
22526;DHT22;11429;50.842;4.386;2024-03-02T13:27:22;13.20;99.90
22526;DHT22;11429;50.842;4.386;2024-03-02T13:29:48;13.40;99.90
22526;DHT22;11429;50.842;4.386;2024-03-02T13:32:15;13.40;99.90
22526;DHT22;11429;50.842;4.386;2024-03-02T13:34:41;13.40;99.90
22526;DHT22;11429;50.842;4.386;2024-03-02T13:37:07;13.30;99.90
22526;DHT22;11429;50.842;4.386;2024-03-02T13:39:33;13.40;99.90
22526;DHT22;11429;50.842;4.386;2024-03-02T13:42:14;13.40;99.90
22526;DHT22;11429;50.842;4.386;2024-03-02T13:44:43;13.40;99.90
22526;DHT22;11429;50.842;4.386;2024-03-02T13:47:11;13.40;99.90
22526;DHT22;11429;50.842;4.386;2024-03-02T13:49:36;13.40;99.90
22526;DHT22;11429;50.842;4.386;2024-03-02T13:52:04;13.20;99.90
22526;DHT22;11429;50.842;4.386;2024-03-02T13:54:47;13.30;99.90
22526;DHT22;11429;50.842;4.386;2024-03-02T13:57:13;13.30;99.90
22526;DHT22;11429;50.842;4.386;2024-03-02T13:59:42;13.20;99.90
22526;DHT22;11429;50.842;4.386;2024-03-02T14:02:08;13.00;99.90
22526;DHT22;11429;50.842;4.386;2024-03-02T14:04:35;12.90;99.90
22526;DHT22;11429;50.842;4.386;2024-03-02T14:07:01;12.90;99.90
22526;DHT22;11429;50.842;4.386;2024-03-02T14:09:27;12.80;99.90
22526;DHT22;11429;50.842;4.386;2024-03-02T14:11:54;13.00;99.90
22526;DHT22;11429;50.842;4.386;2024-03-02T14:14:21;12.90;99.90
22526;DHT22;11429;50.842;4.386;2024-03-02T14:16:47;12.90;99.90
22526;DHT22;11429;50.842;4.386;2024-03-02T14:19:13;12.80;99.90
22526;DHT22;11429;50.842;4.386;2024-03-02T14:21:39;12.80;99.90
22526;DHT22;11429;50.842;4.386;2024-03-02T14:24:05;12.60;99.90
22526;DHT22;11429;50.842;4.386;2024-03-02T14:26:35;12.50;99.90
22526;DHT22;11429;50.842;4.386;2024-03-02T14:29:02;12.50;99.90
22526;DHT22;11429;50.842;4.386;2024-03-02T14:31:29;12.40;99.90
22526;DHT22;11429;50.842;4.386;2024-03-02T14:33:55;12.30;99.90
22526;DHT22;11429;50.842;4.386;2024-03-02T14:36:20;12.30;99.90
22526;DHT22;11429;50.842;4.386;2024-03-02T14:38:46;12.30;99.90
22526;DHT22;11429;50.842;4.386;2024-03-02T14:41:13;12.40;99.90
22526;DHT22;11429;50.842;4.386;2024-03-02T14:43:39;12.50;99.90
22526;DHT22;11429;50.842;4.386;2024-03-02T14:46:05;12.50;99.90
22526;DHT22;11429;50.842;4.386;2024-03-02T14:48:31;12.50;99.90
22526;DHT22;11429;50.842;4.386;2024-03-02T14:50:57;12.50;99.90
22526;DHT22;11429;50.842;4.386;2024-03-02T14:53:23;12.50;99.90
22526;DHT22;11429;50.842;4.386;2024-03-02T14:55:49;12.40;99.90
22526;DHT22;11429;50.842;4.386;2024-03-02T14:58:15;12.50;99.90
22526;DHT22;11429;50.842;4.386;2024-03-02T15:00:41;12.50;99.90
22526;DHT22;11429;50.842;4.386;2024-03-02T15:03:07;12.50;99.90
22526;DHT22;11429;50.842;4.386;2024-03-02T15:05:35;12.50;99.90
22526;DHT22;11429;50.842;4.386;2024-03-02T15:08:01;12.50;99.90
22526;DHT22;11429;50.842;4.386;2024-03-02T15:10:29;12.50;99.90
22526;DHT22;11429;50.842;4.386;2024-03-02T15:12:55;12.50;99.90
22526;DHT22;11429;50.842;4.386;2024-03-02T15:15:21;12.40;99.90
22526;DHT22;11429;50.842;4.386;2024-03-02T15:17:47;12.30;99.90
22526;DHT22;11429;50.842;4.386;2024-03-02T15:20:12;12.20;99.90
22526;DHT22;11429;50.842;4.386;2024-03-02T15:22:38;12.20;99.90
22526;DHT22;11429;50.842;4.386;2024-03-02T15:25:04;12.20;99.90
22526;DHT22;11429;50.842;4.386;2024-03-02T15:27:30;12.00;99.90
22526;DHT22;11429;50.842;4.386;2024-03-02T15:29:56;12.00;99.90
22526;DHT22;11429;50.842;4.386;2024-03-02T15:32:23;12.00;99.90
22526;DHT22;11429;50.842;4.386;2024-03-02T15:34:49;12.00;99.90
22526;DHT22;11429;50.842;4.386;2024-03-02T15:37:15;12.00;99.90
22526;DHT22;11429;50.842;4.386;2024-03-02T15:39:41;11.90;99.90
22526;DHT22;11429;50.842;4.386;2024-03-02T15:42:07;11.90;99.90
22526;DHT22;11429;50.842;4.386;2024-03-02T15:44:32;12.00;99.90
22526;DHT22;11429;50.842;4.386;2024-03-02T15:46:59;12.10;99.90
22526;DHT22;11429;50.842;4.386;2024-03-02T15:49:24;12.00;99.90
22526;DHT22;11429;50.842;4.386;2024-03-02T15:51:50;12.00;99.90
22526;DHT22;11429;50.842;4.386;2024-03-02T15:54:16;12.10;99.90